Time;durP1;ratioP1;P1;durP2;ratioP2;P2;SDS_P1;SDS_P2;PMS_P1;PMS_P2;Temp;Humidity;BMP_temperature;BMP_pressure;BME280_temperature;BME280_humidity;BME280_pressure;Samples;Min_cycle;Max_cycle;Signal;HPM_P1;HPM_P2
2022/10/19 00:01:00;;;;;;;18.12;9.25;;;;;;;14.60;100.00;99502.50;4311049;33;20838;-76
2022/10/19 00:03:29;;;;;;;18.20;10.20;;;;;;;14.26;100.00;99503.66;4310439;33;20207;-76
2022/10/19 00:05:55;;;;;;;19.45;9.18;;;;;;;14.33;100.00;99495.31;4310772;33;20112;-75
2022/10/19 00:08:22;;;;;;;16.30;9.27;;;;;;;13.96;100.00;99428.47;4311548;33;20048;-76
2022/10/19 00:10:49;;;;;;;18.75;9.20;;;;;;;14.13;100.00;99420.97;4311269;33;20049;-76
2022/10/19 00:13:15;;;;;;;19.50;10.10;;;;;;;14.29;100.00;99464.41;4298051;33;20044;-75
2022/10/19 00:15:42;;;;;;;16.77;10.57;;;;;;;13.93;100.00;99456.91;4309302;33;20058;-76
2022/10/19 00:18:08;;;;;;;14.48;9.65;;;;;;;14.34;100.00;99488.78;4310621;33;20079;-76
2022/10/19 00:20:35;;;;;;;13.50;8.30;;;;;;;14.21;100.00;99467.63;4311517;33;20037;-76
2022/10/19 00:23:02;;;;;;;15.35;9.50;;;;;;;14.22;100.00;99463.84;4311225;33;20037;-76
2022/10/19 00:25:29;;;;;;;15.07;8.40;;;;;;;14.11;100.00;99452.94;4311594;33;20101;-75
2022/10/19 00:27:55;;;;;;;17.12;8.43;;;;;;;14.02;100.00;99465.34;4309396;33;20112;-75
2022/10/19 00:30:22;;;;;;;17.37;8.60;;;;;;;14.27;100.00;99489.03;4311078;33;20052;-75
2022/10/19 00:32:48;;;;;;;9.95;7.78;;;;;;;14.01;100.00;99460.19;4309951;33;20451;-75
2022/10/19 00:35:15;;;;;;;21.10;9.38;;;;;;;14.19;100.00;99477.91;4309954;33;20041;-75
2022/10/19 00:37:41;;;;;;;15.07;7.95;;;;;;;14.00;100.00;99478.31;4311031;33;20036;-75
2022/10/19 00:40:08;;;;;;;19.17;7.78;;;;;;;13.58;100.00;99427.72;4308916;33;20053;-75
2022/10/19 00:42:34;;;;;;;18.90;9.57;;;;;;;14.23;100.00;99487.12;4310386;33;20052;-75
2022/10/19 00:45:05;;;;;;;18.92;9.57;;;;;;;13.78;100.00;99492.78;4311132;33;20062;-75
2022/10/19 00:47:33;;;;;;;18.48;8.43;;;;;;;13.88;100.00;99485.81;4309436;33;20070;-75
2022/10/19 00:49:59;;;;;;;15.13;9.82;;;;;;;14.05;100.00;99480.25;4310516;33;20063;-76
2022/10/19 00:52:27;;;;;;;12.05;7.80;;;;;;;14.10;100.00;99482.97;4308302;33;20386;-75
2022/10/19 00:54:56;;;;;;;20.15;8.70;;;;;;;13.74;100.00;99488.97;4310932;33;20052;-75
2022/10/19 00:57:27;;;;;;;17.33;9.52;;;;;;;13.67;100.00;99484.84;4322110;33;20074;-74
2022/10/19 00:59:54;;;;;;;17.77;9.35;;;;;;;13.69;100.00;99478.13;4323472;33;20048;-75
2022/10/19 01:02:21;;;;;;;25.62;10.73;;;;;;;13.56;100.00;99438.78;4319155;33;20107;-76
2022/10/19 01:04:50;;;;;;;16.20;10.18;;;;;;;13.66;100.00;99440.75;4322331;33;20040;-76
2022/10/19 01:07:18;;;;;;;16.08;9.07;;;;;;;13.94;100.00;99482.06;4323270;33;20074;-76
2022/10/19 01:09:44;;;;;;;20.30;10.57;;;;;;;13.83;100.00;99483.06;4293096;33;20034;-75
2022/10/19 01:12:44;;;;;;;17.33;10.00;;;;;;;13.65;100.00;99474.28;4282381;33;20033;-75
2022/10/19 01:15:19;;;;;;;21.35;9.23;;;;;;;13.92;100.00;99466.09;4280131;33;20057;-76
2022/10/19 01:18:07;;;;;;;18.40;11.40;;;;;;;13.77;100.00;99458.69;4277258;33;20059;-77
2022/10/19 01:20:59;;;;;;;21.62;11.27;;;;;;;13.90;100.00;99457.41;4279807;33;20117;-76
2022/10/19 01:23:34;;;;;;;21.70;10.45;;;;;;;13.69;100.00;99456.47;4277605;33;20037;-75
2022/10/19 01:26:09;;;;;;;13.60;8.85;;;;;;;13.52;100.00;99459.31;4265285;33;20093;-75
2022/10/19 01:29:03;;;;;;;21.48;10.20;;;;;;;12.85;100.00;99431.63;4272306;33;20045;-75
2022/10/19 01:31:44;;;;;;;17.77;10.32;;;;;;;13.66;100.00;99462.41;4250550;33;20148;-75
2022/10/19 01:34:20;;;;;;;20.48;9.80;;;;;;;13.65;100.00;99444.53;4263896;33;20073;-76
2022/10/19 01:36:58;;;;;;;20.05;10.23;;;;;;;13.37;100.00;99378.88;4265352;33;20071;-73
2022/10/19 01:39:40;;;;;;;18.12;10.43;;;;;;;13.63;100.00;99452.91;4263823;33;20037;-75
2022/10/19 01:42:29;;;;;;;20.83;10.52;;;;;;;13.55;100.00;99447.97;4278073;33;20056;-74
2022/10/19 01:45:14;;;;;;;21.90;10.65;;;;;;;13.78;100.00;99460.31;4290028;33;20054;-75
2022/10/19 01:47:54;;;;;;;24.75;9.93;;;;;;;13.35;100.00;99418.06;4279770;33;20102;-74
2022/10/19 01:50:23;;;;;;;14.68;9.43;;;;;;;13.58;100.00;99450.16;4282615;33;20043;-74
2022/10/19 01:52:52;;;;;;;27.87;10.10;;;;;;;13.08;100.00;99454.84;4293705;33;20072;-75
2022/10/19 01:55:20;;;;;;;19.65;10.27;;;;;;;12.89;100.00;99375.19;4294840;33;20117;-74
2022/10/19 01:57:51;;;;;;;19.62;10.43;;;;;;;13.04;100.00;99407.78;4308414;33;20412;-74
2022/10/19 02:00:21;;;;;;;18.23;9.27;;;;;;;13.39;100.00;99440.81;4310937;33;20070;-74
2022/10/19 02:02:51;;;;;;;19.37;9.32;;;;;;;13.21;100.00;99442.81;4310651;33;20059;-75
2022/10/19 02:05:20;;;;;;;15.02;9.52;;;;;;;13.40;100.00;99453.25;4312203;33;20072;-74
2022/10/19 02:07:56;;;;;;;25.52;10.85;;;;;;;13.09;100.00;99448.34;4296250;33;20025;-75
2022/10/19 02:10:24;;;;;;;15.55;9.02;;;;;;;13.12;100.00;99448.94;4301840;33;20066;-75
2022/10/19 02:12:54;;;;;;;22.77;10.50;;;;;;;13.27;100.00;99451.75;4303938;33;20080;-76
2022/10/19 02:15:24;;;;;;;18.42;9.70;;;;;;;13.31;100.00;99450.19;4295472;33;20110;-75
2022/10/19 02:17:55;;;;;;;18.52;10.50;;;;;;;13.26;100.00;99432.03;4295640;33;20127;-74
2022/10/19 02:20:22;;;;;;;20.33;9.57;;;;;;;12.89;100.00;99394.94;4286994;33;20065;-74
2022/10/19 02:22:49;;;;;;;23.15;9.75;;;;;;;13.22;100.00;99433.59;4280320;33;20037;-74
2022/10/19 02:25:16;;;;;;;17.12;8.63;;;;;;;13.02;100.00;99425.31;4281680;33;20045;-75
2022/10/19 02:27:42;;;;;;;22.13;7.97;;;;;;;12.97;100.00;99401.78;4281994;33;20037;-74
2022/10/19 02:30:11;;;;;;;10.85;8.48;;;;;;;13.02;100.00;99428.84;4289523;33;20424;-75
2022/10/19 02:32:38;;;;;;;17.05;8.20;;;;;;;12.81;100.00;99394.56;4294025;33;20041;-76
2022/10/19 02:35:05;;;;;;;21.73;8.40;;;;;;;12.66;100.00;99444.69;4295435;33;20045;-75
2022/10/19 02:37:31;;;;;;;15.50;9.18;;;;;;;13.01;100.00;99435.31;4295628;33;20040;-75
2022/10/19 02:39:58;;;;;;;20.83;10.38;;;;;;;13.04;100.00;99434.00;4294921;33;20491;-75
2022/10/19 02:42:33;;;;;;;21.60;9.02;;;;;;;12.94;100.00;99413.09;4293562;33;20033;-76
2022/10/19 02:45:31;;;;;;;20.52;10.38;;;;;;;13.14;100.00;99430.56;4275088;33;20434;-75
2022/10/19 02:48:13;;;;;;;19.55;9.07;;;;;;;12.99;100.00;99423.94;4291914;33;20024;-75
2022/10/19 02:50:43;;;;;;;18.75;9.40;;;;;;;12.91;100.00;99419.00;4294346;33;20099;-75
2022/10/19 02:53:10;;;;;;;18.08;9.38;;;;;;;12.99;100.00;99418.53;4294881;33;20080;-75
2022/10/19 02:55:36;;;;;;;16.50;9.63;;;;;;;12.78;100.00;99368.06;4294681;33;20037;-75
2022/10/19 02:58:03;;;;;;;20.23;10.10;;;;;;;12.78;100.00;99414.00;4291500;33;20070;-75
2022/10/19 03:00:29;;;;;;;17.60;9.68;;;;;;;12.82;100.00;99388.91;4292950;33;20053;-75
2022/10/19 03:02:56;;;;;;;15.13;9.25;;;;;;;12.77;100.00;99358.34;4280323;33;20025;-74
2022/10/19 03:05:22;;;;;;;16.45;9.45;;;;;;;12.83;100.00;99357.31;4280697;33;20050;-75
2022/10/19 03:07:49;;;;;;;19.50;9.82;;;;;;;13.01;100.00;99405.56;4283092;33;20029;-74
2022/10/19 03:10:15;;;;;;;15.30;10.20;;;;;;;13.20;100.00;99407.91;4280900;33;20106;-74
2022/10/19 03:12:41;;;;;;;16.52;9.15;;;;;;;12.81;100.00;99359.44;4279968;33;20072;-74
2022/10/19 03:15:13;;;;;;;18.95;8.18;;;;;;;12.79;100.00;99367.81;4265271;33;20414;-75
2022/10/19 03:17:39;;;;;;;14.50;7.80;;;;;;;12.98;100.00;99397.19;4254438;33;20571;-75
2022/10/19 03:20:07;;;;;;;16.35;9.55;;;;;;;12.78;100.00;99392.38;4239885;33;20422;-74
2022/10/19 03:22:33;;;;;;;18.95;9.13;;;;;;;12.67;100.00;99359.88;4236839;33;20064;-74
2022/10/19 03:24:59;;;;;;;12.00;8.27;;;;;;;12.68;100.00;99357.97;4238465;33;20043;-75
2022/10/19 03:27:26;;;;;;;19.70;8.98;;;;;;;12.95;100.00;99370.66;4238128;33;20351;-74
2022/10/19 03:29:52;;;;;;;21.98;8.32;;;;;;;12.97;100.00;99363.09;4240772;33;20037;-74
2022/10/19 03:32:19;;;;;;;14.70;8.00;;;;;;;12.51;100.00;99366.19;4256232;33;20030;-74
2022/10/19 03:34:45;;;;;;;16.17;8.55;;;;;;;13.03;100.00;99395.31;4260105;33;20447;-74
2022/10/19 03:37:13;;;;;;;13.60;8.63;;;;;;;12.60;100.00;99353.03;4274607;33;20052;-74
2022/10/19 03:39:40;;;;;;;13.75;9.70;;;;;;;13.08;100.00;99384.56;4278851;33;20088;-74
2022/10/19 03:42:06;;;;;;;18.30;9.68;;;;;;;12.63;100.00;99356.03;4288353;33;20060;-73
2022/10/19 03:44:33;;;;;;;22.17;10.65;;;;;;;12.90;100.00;99364.12;4293750;33;20055;-72
2022/10/19 03:46:59;;;;;;;18.25;10.35;;;;;;;12.86;100.00;99389.22;4308306;33;20029;-73
2022/10/19 03:49:26;;;;;;;27.33;11.27;;;;;;;12.66;100.00;99369.03;4311794;33;20078;-74
2022/10/19 03:51:52;;;;;;;30.27;12.70;;;;;;;12.84;100.00;99353.53;4308600;33;20078;-73
2022/10/19 03:54:18;;;;;;;27.70;12.07;;;;;;;13.19;100.00;99398.16;4311928;33;20061;-74
2022/10/19 03:56:45;;;;;;;37.67;12.05;;;;;;;12.82;100.00;99390.81;4311888;33;20078;-74
2022/10/19 03:59:13;;;;;;;19.20;11.63;;;;;;;13.16;100.00;99383.28;4312107;33;20059;-73
2022/10/19 04:01:42;;;;;;;19.20;11.73;;;;;;;13.25;100.00;99381.72;4310677;33;20054;-76
2022/10/19 04:04:12;;;;;;;18.20;11.07;;;;;;;13.32;100.00;99386.91;4310052;33;20056;-74
2022/10/19 04:06:41;;;;;;;24.98;11.48;;;;;;;13.20;100.00;99383.56;4311181;33;20173;-74
2022/10/19 04:09:11;;;;;;;16.95;10.50;;;;;;;13.47;100.00;99388.16;4310404;33;20041;-74
2022/10/19 04:11:38;;;;;;;24.63;11.27;;;;;;;13.18;100.00;99396.53;4310832;33;20052;-73
2022/10/19 04:14:04;;;;;;;17.40;10.80;;;;;;;13.38;100.00;99391.31;4308057;33;20063;-73
2022/10/19 04:16:31;;;;;;;20.02;9.93;;;;;;;13.23;100.00;99380.34;4310531;33;20084;-73
2022/10/19 04:18:58;;;;;;;25.40;10.15;;;;;;;13.06;100.00;99394.81;4323927;33;20047;-74
2022/10/19 04:21:27;;;;;;;19.90;10.00;;;;;;;12.93;100.00;99384.44;4323664;33;20055;-74
2022/10/19 04:24:00;;;;;;;17.33;9.45;;;;;;;12.86;100.00;99394.62;4317600;33;20371;-75
2022/10/19 04:26:27;;;;;;;16.40;10.70;;;;;;;12.71;100.00;99350.16;4266452;33;20053;-74
2022/10/19 04:28:59;;;;;;;20.70;11.23;;;;;;;13.14;100.00;99380.00;4280445;33;20167;-73
2022/10/19 04:31:26;;;;;;;;;;;;;;;13.17;100.00;99394.91;4278663;33;20044;-75
2022/10/19 04:33:53;;;;;;;13.48;8.68;;;;;;;13.11;100.00;99383.22;4278991;33;19933;-76
2022/10/19 04:36:19;;;;;;;30.48;10.10;;;;;;;12.89;100.00;99346.28;4279665;33;20038;-74
2022/10/19 04:38:46;;;;;;;21.10;9.73;;;;;;;13.27;100.00;99378.75;4264476;33;20060;-75
2022/10/19 04:41:15;;;;;;;17.05;9.50;;;;;;;13.12;100.00;99381.34;4264061;33;20072;-74
2022/10/19 04:43:44;;;;;;;20.33;10.88;;;;;;;13.06;100.00;99373.19;4265929;33;20458;-75
2022/10/19 04:48:47;;;;;;;22.58;10.60;;;;;;;13.09;100.00;99334.81;4265675;33;20038;-74
2022/10/19 04:51:14;;;;;;;20.75;9.07;;;;;;;13.41;100.00;99373.75;4251423;33;20381;-73
2022/10/19 04:53:42;;;;;;;23.95;11.52;;;;;;;13.22;100.00;99359.78;4250273;33;20288;-74
2022/10/19 04:56:14;;;;;;;17.33;10.05;;;;;;;13.32;100.00;99375.28;4251411;33;20476;-74
2022/10/19 04:58:41;;;;;;;21.08;10.30;;;;;;;13.42;100.00;99368.09;4277258;33;20464;-74
2022/10/19 05:01:09;;;;;;;18.33;9.60;;;;;;;13.25;100.00;99326.81;4277222;33;20461;-74
2022/10/19 05:03:43;;;;;;;22.37;10.65;;;;;;;13.41;100.00;99355.63;4278210;33;20044;-73
2022/10/19 05:06:10;;;;;;;18.90;9.25;;;;;;;13.33;100.00;99360.72;4277385;33;20021;-73
2022/10/19 05:08:44;;;;;;;19.25;9.35;;;;;;;12.96;100.00;99354.19;4267430;33;20440;-73
2022/10/19 05:11:13;;;;;;;19.48;10.68;;;;;;;12.66;100.00;99331.22;4307821;33;20106;-75
2022/10/19 05:13:41;;;;;;;16.05;7.22;;;;;;;12.84;100.00;99318.41;4326493;33;20117;-73
2022/10/19 05:16:10;;;;;;;19.40;9.52;;;;;;;12.41;100.00;99314.75;4329242;33;20033;-73
2022/10/19 05:18:36;;;;;;;17.42;9.25;;;;;;;13.26;100.00;99350.09;4328966;33;20062;-73
2022/10/19 05:21:05;;;;;;;23.83;9.57;;;;;;;12.85;100.00;99312.75;4327408;33;20378;-73
2022/10/19 05:23:32;;;;;;;15.20;9.45;;;;;;;13.12;100.00;99316.47;4321491;33;20052;-74
2022/10/19 05:26:04;;;;;;;15.20;8.05;;;;;;;13.20;100.00;99351.13;4327268;33;20047;-75
2022/10/19 05:28:31;;;;;;;14.35;8.43;;;;;;;13.41;100.00;99358.34;4331078;33;20082;-75
2022/10/19 05:31:28;;;;;;;15.48;7.97;;;;;;;13.11;100.00;99352.69;4323697;33;20506;-76
2022/10/19 05:33:55;;;;;;;18.23;9.15;;;;;;;13.08;100.00;99354.00;4274336;33;20516;-76
2022/10/19 05:36:26;;;;;;;14.80;9.20;;;;;;;13.25;100.00;99356.56;4274051;33;20395;-74
2022/10/19 05:38:56;;;;;;;17.23;8.38;;;;;;;13.22;100.00;99354.38;4271117;33;20409;-76
2022/10/19 05:41:24;;;;;;;26.37;8.95;;;;;;;13.12;100.00;99370.53;4273004;33;20085;-75
2022/10/19 05:43:53;;;;;;;24.20;9.23;;;;;;;12.67;100.00;99321.25;4269966;33;20048;-75
2022/10/19 05:46:19;;;;;;;16.83;9.98;;;;;;;12.92;100.00;99365.75;4248983;33;20066;-75
2022/10/19 05:48:46;;;;;;;30.85;10.90;;;;;;;12.59;100.00;99319.81;4250425;33;20128;-78
2022/10/19 05:51:15;;;;;;;24.30;10.10;;;;;;;12.41;100.00;99317.47;4244560;33;20066;-80
2022/10/19 05:53:42;;;;;;;16.92;9.93;;;;;;;13.12;100.00;99370.53;4238638;33;20065;-80
2022/10/19 05:56:13;;;;;;;18.60;9.55;;;;;;;12.98;100.00;99327.69;4240552;33;20042;-79
2022/10/19 05:58:39;;;;;;;17.48;10.70;;;;;;;13.43;100.00;99367.03;4235084;33;20054;-81
2022/10/19 06:01:07;;;;;;;19.40;9.32;;;;;;;13.17;100.00;99355.16;4234483;33;21027;-79
2022/10/19 06:03:34;;;;;;;23.00;10.25;;;;;;;12.59;100.00;99336.03;4195049;34;20224;-81
2022/10/19 06:06:05;;;;;;;23.27;10.48;;;;;;;12.94;100.00;99359.03;4195143;34;20105;-79
2022/10/19 06:08:33;;;;;;;15.27;9.02;;;;;;;13.26;100.00;99361.72;4193619;34;20062;-81
2022/10/19 06:11:20;;;;;;;21.60;9.75;;;;;;;13.35;100.00;99377.50;4230064;33;20105;-79
2022/10/19 06:13:49;;;;;;;24.55;8.90;;;;;;;13.16;100.00;99360.81;4251204;33;20038;-80
2022/10/19 06:16:17;;;;;;;19.02;7.87;;;;;;;13.27;100.00;99376.03;4236030;33;20081;-81
2022/10/19 06:18:44;;;;;;;21.27;9.30;;;;;;;13.17;100.00;99373.28;4239764;33;20681;-81
2022/10/19 06:21:13;;;;;;;15.80;8.75;;;;;;;13.17;100.00;99374.09;4253395;33;20046;-79
2022/10/19 06:23:41;;;;;;;14.98;8.07;;;;;;;13.33;100.00;99376.94;4253553;33;20435;-79
2022/10/19 06:26:11;;;;;;;14.85;7.47;;;;;;;13.50;100.00;99376.78;4241810;33;20383;-78
2022/10/19 06:28:40;;;;;;;19.95;8.13;;;;;;;13.10;100.00;99378.91;4245576;33;20072;-79
2022/10/19 06:31:07;;;;;;;25.80;8.23;;;;;;;13.22;100.00;99376.00;4267041;33;20057;-80
2022/10/19 06:33:33;;;;;;;15.27;7.32;;;;;;;13.13;100.00;99361.34;4266066;33;20087;-80
2022/10/19 06:36:18;;;;;;;18.62;7.72;;;;;;;12.69;100.00;99346.91;4266142;33;20449;-79
2022/10/19 06:38:45;;;;;;;15.32;6.62;;;;;;;13.17;100.00;99373.28;4266430;33;20072;-79
2022/10/19 06:41:12;;;;;;;17.65;6.72;;;;;;;12.75;100.00;99336.16;4281093;33;20394;-80
2022/10/19 06:43:41;;;;;;;15.85;6.82;;;;;;;13.29;100.00;99382.03;4282087;33;20059;-82
2022/10/19 06:46:11;;;;;;;11.38;6.53;;;;;;;12.77;100.00;99375.34;4294319;33;20063;-77
2022/10/19 06:48:37;;;;;;;15.27;6.80;;;;;;;13.05;100.00;99349.09;4293982;33;20041;-79
2022/10/19 06:51:08;;;;;;;12.55;6.90;;;;;;;12.85;100.00;99376.78;4295046;33;20049;-79
2022/10/19 06:53:35;;;;;;;22.37;8.80;;;;;;;12.66;100.00;99279.88;4296285;33;20034;-80
2022/10/19 06:56:04;;;;;;;13.10;6.12;;;;;;;12.44;100.00;99327.75;4294413;33;20033;-80
2022/10/19 06:58:35;;;;;;;13.80;6.62;;;;;;;12.83;100.00;99373.53;4292429;33;20107;-80
2022/10/19 07:01:03;;;;;;;12.48;7.12;;;;;;;13.28;100.00;99374.97;4280071;33;20056;-80
2022/10/19 07:03:29;;;;;;;12.50;6.65;;;;;;;12.82;100.00;99342.97;4295192;33;20024;-81
2022/10/19 07:05:58;;;;;;;13.85;8.25;;;;;;;13.02;100.00;99345.06;4250986;33;20026;-78
2022/10/19 07:08:27;;;;;;;14.77;6.70;;;;;;;13.43;100.00;99377.84;4248912;33;20068;-80
2022/10/19 07:10:59;;;;;;;18.42;6.28;;;;;;;13.13;100.00;99342.41;4266592;33;20046;-81
2022/10/19 07:13:27;;;;;;;12.40;7.05;;;;;;;13.67;100.00;99393.66;4280403;33;20092;-79
2022/10/19 07:16:14;;;;;;;13.40;6.57;;;;;;;13.43;100.00;99399.47;4279117;33;20047;-81
2022/10/19 07:18:41;;;;;;;15.68;6.35;;;;;;;13.26;100.00;99409.59;4279755;33;20045;-80
2022/10/19 07:21:10;;;;;;;18.27;6.45;;;;;;;13.27;100.00;99403.09;4280492;33;20049;-85
2022/10/19 07:23:38;;;;;;;14.57;7.37;;;;;;;13.26;100.00;99409.59;4265843;33;20059;-85
2022/10/19 07:26:12;;;;;;;11.40;5.43;;;;;;;13.40;100.00;99401.88;4264699;33;20180;-83
2022/10/19 07:28:41;;;;;;;11.70;6.18;;;;;;;13.42;100.00;99408.66;4263406;33;20191;-85
2022/10/19 07:31:11;;;;;;;12.63;6.25;;;;;;;13.38;100.00;99410.25;4239461;33;20072;-85
2022/10/19 07:33:37;;;;;;;9.43;5.03;;;;;;;13.52;100.00;99409.81;4268104;33;20057;-87
2022/10/19 07:36:07;;;;;;;8.43;5.80;;;;;;;13.32;100.00;99408.53;4282319;33;20055;-84
2022/10/19 07:38:34;;;;;;;18.45;5.43;;;;;;;13.05;100.00;99363.47;4294170;33;20057;-84
2022/10/19 07:41:03;;;;;;;12.48;5.40;;;;;;;12.54;100.00;99388.09;4292961;33;20505;-86
2022/10/19 07:43:30;;;;;;;13.10;4.75;;;;;;;13.24;100.00;99371.16;4273762;33;20079;-86
2022/10/19 07:46:03;;;;;;;13.32;5.12;;;;;;;12.75;100.00;99371.28;4275966;33;20056;-87
2022/10/19 07:48:29;;;;;;;13.13;4.47;;;;;;;13.18;100.00;99431.66;4279549;33;20042;-83
2022/10/19 07:50:56;;;;;;;12.13;4.22;;;;;;;13.35;100.00;99420.75;4278707;33;20501;-87
2022/10/19 07:53:23;;;;;;;9.15;4.60;;;;;;;13.31;100.00;99417.75;4292099;33;20062;-84
2022/10/19 07:55:49;;;;;;;12.05;4.15;;;;;;;13.51;100.00;99424.41;4291844;33;20021;-86
2022/10/19 07:58:16;;;;;;;8.60;3.90;;;;;;;13.42;100.00;99376.19;4300757;33;20369;-82
2022/10/19 08:00:42;;;;;;;7.85;3.47;;;;;;;13.11;100.00;99371.59;4291749;33;20112;-86
2022/10/19 08:03:10;;;;;;;6.28;4.12;;;;;;;13.17;100.00;99400.31;4293384;33;20163;-84
2022/10/19 08:05:36;;;;;;;10.77;3.47;;;;;;;13.63;100.00;99414.22;4282117;33;20037;-84
2022/10/19 08:08:03;;;;;;;9.48;4.45;;;;;;;13.89;100.00;99403.53;4263514;33;20101;-84
2022/10/19 08:10:30;;;;;;;11.75;3.80;;;;;;;13.61;100.00;99389.31;4254000;33;20047;-83
2022/10/19 08:12:56;;;;;;;9.35;3.45;;;;;;;13.60;100.00;99414.75;4250962;33;20058;-86
2022/10/19 08:15:24;;;;;;;12.13;3.10;;;;;;;13.68;100.00;99416.94;4266764;33;20079;-84
2022/10/19 08:17:51;;;;;;;10.55;3.60;;;;;;;13.51;100.00;99373.81;4263638;33;20046;-88
2022/10/19 08:20:18;;;;;;;7.65;2.97;;;;;;;13.88;100.00;99427.09;4275290;33;20205;-85
2022/10/19 08:22:45;;;;;;;9.98;3.28;;;;;;;13.52;100.00;99380.84;4264769;33;20106;-86
2022/10/19 08:25:22;;;;;;;14.35;3.12;;;;;;;13.60;100.00;99376.84;4248966;33;20075;-86
2022/10/19 08:27:49;;;;;;;7.00;3.17;;;;;;;13.94;100.00;99406.28;4258017;33;20061;-88
2022/10/19 08:30:16;;;;;;;10.68;3.15;;;;;;;13.89;100.00;99411.66;4251070;33;20026;-87
2022/10/19 08:32:43;;;;;;;16.85;3.12;;;;;;;13.83;100.00;99380.22;4251507;33;20054;-84
2022/10/19 08:35:10;;;;;;;3.55;3.25;;;;;;;13.79;100.00;99369.94;4250591;33;20064;-87
2022/10/19 08:37:37;;;;;;;8.18;2.60;;;;;;;13.90;100.00;99418.72;4263997;33;20056;-85
2022/10/19 08:40:04;;;;;;;3.47;2.45;;;;;;;13.63;100.00;99419.63;4264965;33;20509;-87
2022/10/19 08:42:52;;;;;;;7.03;2.75;;;;;;;13.72;100.00;99437.00;4279411;33;20077;-85
2022/10/19 08:45:40;;;;;;;5.82;2.70;;;;;;;13.65;100.00;99406.66;4279382;33;20029;-84
2022/10/19 08:48:24;;;;;;;7.70;2.40;;;;;;;13.02;100.00;99355.88;4279142;33;20065;-85
2022/10/19 08:50:52;;;;;;;6.90;2.70;;;;;;;13.67;100.00;99419.91;4276117;33;20073;-86
2022/10/19 08:53:26;;;;;;;10.70;2.62;;;;;;;13.83;100.00;99428.94;4275350;33;20075;-84
2022/10/19 08:56:33;;;;;;;12.85;2.78;;;;;;;14.17;100.00;99413.97;4294692;33;20033;-85
2022/10/19 08:59:24;;;;;;;6.78;2.92;;;;;;;13.40;100.00;99377.53;4309227;33;20084;-86
2022/10/19 09:02:09;;;;;;;8.80;2.73;;;;;;;13.74;100.00;99410.50;4311167;33;20116;-86
2022/10/19 09:04:40;;;;;;;6.22;2.45;;;;;;;13.98;100.00;99445.28;4311567;33;20076;-87
2022/10/19 09:07:26;;;;;;;6.00;2.47;;;;;;;13.73;100.00;99425.09;4311968;33;20055;-86
2022/10/19 09:09:55;;;;;;;5.65;1.98;;;;;;;13.84;100.00;99436.00;4313593;33;20044;-85
2022/10/19 09:12:39;;;;;;;5.28;2.30;;;;;;;13.74;100.00;99417.81;4325714;33;20082;-87
2022/10/19 09:15:17;;;;;;;7.12;2.50;;;;;;;13.77;100.00;99426.22;4326576;33;20147;-79
2022/10/19 09:17:44;;;;;;;2.62;2.25;;;;;;;13.40;100.00;99394.59;4325449;33;20041;-80
2022/10/19 09:20:20;;;;;;;5.68;2.45;;;;;;;13.48;100.00;99387.03;4308159;33;20186;-80
2022/10/19 09:23:13;;;;;;;7.97;2.50;;;;;;;13.55;100.00;99418.22;4310566;33;20045;-80
2022/10/19 09:25:40;;;;;;;8.68;2.58;;;;;;;13.69;100.00;99437.53;4278109;33;20348;-82
2022/10/19 09:28:33;;;;;;;5.57;2.40;;;;;;;13.54;100.00;99432.81;4312325;33;20476;-81
2022/10/19 09:31:00;;;;;;;7.47;2.67;;;;;;;13.51;100.00;99449.56;4305149;33;20069;-81
2022/10/19 09:33:38;;;;;;;5.12;2.20;;;;;;;13.64;100.00;99432.06;4297225;33;20060;-80
2022/10/19 09:36:10;;;;;;;2.20;2.00;;;;;;;13.48;100.00;99446.56;4283683;33;20037;-82
2022/10/19 09:38:37;;;;;;;7.37;2.55;;;;;;;13.17;100.00;99416.53;4278785;33;20072;-82
2022/10/19 09:41:15;;;;;;;3.28;2.00;;;;;;;13.27;100.00;99449.06;4279170;33;20074;-80
2022/10/19 09:43:52;;;;;;;3.95;1.80;;;;;;;13.40;100.00;99451.38;4293736;33;20750;-81
2022/10/19 09:46:50;;;;;;;4.47;1.90;;;;;;;13.08;100.00;99457.56;4294292;33;20045;-82
2022/10/19 09:49:36;;;;;;;4.68;2.22;;;;;;;12.93;100.00;99462.00;4282487;33;20061;-81
2022/10/19 09:52:03;;;;;;;3.37;1.77;;;;;;;13.20;100.00;99416.03;4288837;33;20092;-80
2022/10/19 09:54:35;;;;;;;3.00;1.85;;;;;;;13.29;100.00;99471.28;4306334;33;20447;-79
2022/10/19 09:57:03;;;;;;;2.50;2.00;;;;;;;13.53;100.00;99462.81;4309834;33;20196;-80
2022/10/19 09:59:35;;;;;;;4.78;2.47;;;;;;;12.88;100.00;99420.31;4310358;33;20066;-84
2022/10/19 10:02:05;;;;;;;4.35;1.95;;;;;;;13.17;100.00;99438.97;4310634;33;20150;-82
2022/10/19 10:04:35;;;;;;;9.75;2.37;;;;;;;13.13;100.00;99466.78;4295974;33;20036;-81
2022/10/19 10:07:02;;;;;;;7.70;1.98;;;;;;;13.30;100.00;99458.56;4296510;33;20037;-81
2022/10/19 10:09:41;;;;;;;4.47;1.83;;;;;;;13.26;100.00;99444.75;4279510;33;20460;-80
2022/10/19 10:12:08;;;;;;;5.10;1.90;;;;;;;12.59;100.00;99365.75;4282127;33;20058;-81
2022/10/19 10:14:38;;;;;;;4.10;1.85;;;;;;;13.40;100.00;99459.50;4280440;33;20059;-79
2022/10/19 10:17:16;;;;;;;6.80;2.42;;;;;;;13.47;100.00;99458.47;4280164;33;20071;-82
2022/10/19 10:19:57;;;;;;;3.35;1.80;;;;;;;13.40;100.00;99421.63;4281610;33;20102;-81
2022/10/19 10:22:30;;;;;;;2.00;1.80;;;;;;;13.36;100.00;99425.09;4281322;33;20033;-81
2022/10/19 10:24:57;;;;;;;3.55;1.85;;;;;;;13.42;100.00;99460.03;4280458;33;20038;-81
2022/10/19 10:27:36;;;;;;;3.35;1.85;;;;;;;13.33;100.00;99415.63;4292651;33;20344;-80
2022/10/19 10:30:15;;;;;;;2.30;1.67;;;;;;;13.57;100.00;99426.06;4294440;33;20194;-79
2022/10/19 10:32:51;;;;;;;5.03;3.25;;;;;;;13.75;100.00;99471.69;4295486;33;20059;-81
2022/10/19 10:35:24;;;;;;;5.05;1.58;;;;;;;13.93;100.00;99477.75;4265950;33;20063;-80
2022/10/19 10:37:51;;;;;;;3.60;2.15;;;;;;;13.95;100.00;99472.88;4280005;33;20539;-80
2022/10/19 10:40:29;;;;;;;3.22;2.10;;;;;;;13.92;100.00;99471.50;4280737;33;20460;-81
2022/10/19 10:43:03;;;;;;;2.15;1.80;;;;;;;13.51;100.00;99459.56;4307936;33;20025;-81
2022/10/19 10:45:35;;;;;;;4.15;2.95;;;;;;;13.99;100.00;99471.28;4308509;33;20082;-80
2022/10/19 10:48:39;;;;;;;3.55;1.95;;;;;;;13.67;100.00;99420.72;4280267;33;20446;-80
2022/10/19 10:51:31;;;;;;;2.33;2.00;;;;;;;14.01;100.00;99469.13;4214173;34;20050;-78
2022/10/19 10:54:30;;;;;;;1.58;1.48;;;;;;;14.30;100.00;99464.12;4207834;34;20057;-81
2022/10/19 10:57:18;;;;;;;5.03;1.75;;;;;;;13.93;100.00;99429.03;4210142;34;20039;-79
2022/10/19 11:00:06;;;;;;;4.93;2.25;;;;;;;13.83;100.00;99472.25;4183122;34;20752;-81
2022/10/19 11:02:55;;;;;;;2.72;1.70;;;;;;;13.61;100.00;99432.59;4181733;34;20065;-81
2022/10/19 11:05:30;;;;;;;1.80;1.58;;;;;;;14.07;100.00;99478.94;4182909;34;20441;-81
2022/10/19 11:08:14;;;;;;;2.55;1.90;;;;;;;14.42;100.00;99474.75;4186214;34;20044;-81
2022/10/19 11:11:03;;;;;;;9.65;2.58;;;;;;;14.47;100.00;99463.12;4196669;34;20398;-82
2022/10/19 11:13:37;;;;;;;4.00;1.40;;;;;;;13.74;100.00;99404.28;4196835;34;20044;-81
2022/10/19 11:16:12;;;;;;;3.17;1.60;;;;;;;14.06;100.00;99433.97;4187379;34;20047;-84
2022/10/19 11:18:46;;;;;;;1.70;1.60;;;;;;;14.41;100.00;99456.88;4208446;33;20031;-81
2022/10/19 11:21:23;;;;;;;2.53;2.17;;;;;;;13.96;100.00;99471.78;4236799;33;20125;-82
2022/10/19 11:24:01;;;;;;;1.67;1.58;;;;;;;13.84;100.00;99473.91;4244030;33;20092;-80
2022/10/19 11:26:49;;;;;;;3.03;1.80;;;;;;;14.21;100.00;99467.63;4278541;33;20040;-81
2022/10/19 11:29:29;;;;;;;4.47;1.70;;;;;;;14.19;100.00;99475.19;4321569;33;20036;-83
2022/10/19 11:31:56;;;;;;;4.15;2.28;;;;;;;14.12;100.00;99478.09;4308006;33;20029;-80
2022/10/19 11:34:48;;;;;;;2.17;1.40;;;;;;;14.23;100.00;99465.44;4323117;33;20105;-81
2022/10/19 11:37:30;;;;;;;3.72;1.83;;;;;;;13.72;100.00;99434.31;4323197;33;20036;-81
2022/10/19 11:40:16;;;;;;;7.47;2.20;;;;;;;13.68;100.00;99433.19;4316440;33;20115;-82
2022/10/19 11:43:12;;;;;;;4.10;1.62;;;;;;;14.06;100.00;99461.03;4304850;33;20205;-82